Other Surface Observations
Issued by NWS Missoula, MT

Home | Current Version | Previous Version | Text Only | Print | Product List | Glossary On
Versions: 1 2 3 4 5 6 7 8 9 10 11 12 13 14 15 16 17 18 19 20 21 22 23 24 25 26 27 28 29 30 31 32 33 34 35 36 37 38 39 40 41 42 43 44 45 46 47 48 49 50
405
SXUS55 KMSO 310843
OSOMSO
MONTANA AWOS SUMMARY
NATIONAL WEATHER SERVICE MISSOULA MT
243 AM MDT TUE MAY 31 2016

Montana AWOS Reports

LAUREL      |K6S8 310835Z AUTO 25004KT 40SM 08/00 A3009 RMK AO1 T00780000
ROUNDUP     |KRPX 310835Z AUTO 27015G19KT 40SM 11/00 A3001 RMK AO1 T01060000
TWIN BRIDGES|K7S1 310835Z AUTO 35012G17KT 40SM 08/M01 A3015 RMK AO1 T00831005




USA.gov is the U.S. government's official web portal to all federal, state and local government web resources and services.